Encarnación, Paraguay

5:31 AM PYST en Octubre 26, 2014 (GMT -0300)
Liberador Gral D Jose De San M | Change Station
CLOSE
Current Station
Aeropuerto
Location: Posadas,
Altura: 430 ft
Estaciones meteorológicas cercanas

Alt 430 ft 27.39 °S, 55.97 °W | Updated 31 minutes ago

Clear
Despejado
73 ° F
Sensación térmica 73 ° F
N
6
Viento Variable Viento desde Este

Hoy
Alta -- | Baja -- ° F
--% Posibilidad de precipitaciones
Ayer
Alta -- | Baja -- ° F
Precip. -- pul
5:57 AM 6:57 PM
Creciente, 6% visible
Presión 29.86 pul
Visibilidad -9999.0 Millas
Nubes
Punto de rocío 66 ° F
Humedad 78%
Precipitaciones 0.00 pul
Espesor de la nieve No disponible.
UV No disponible.
Polen No disponible.
Calidad del aire No disponible.
Flu Activity No disponible.
METAR SARP 260800Z 09005KT CAVOK 23/19 Q1011

More Conditions Fewer Conditions

Presión 29.86 pul
Visibilidad -9999.0 Millas
Nubes
Punto de rocío 66 ° F
Humedad 78%
Precipitaciones 0.00 pul
Espesor de la nieve No disponible.
UV No disponible.
Polen No disponible.
Calidad del aire No disponible.
Flu Activity No disponible.
METAR SARP 260800Z 09005KT CAVOK 23/19 Q1011

More Conditions Fewer Conditions

10-Day Weather Forecast

Almanac

Astronomía

Oct. 26, 2014 Salida Puesta
Hora real 5:57 AM PYST 6:57 PM PYST
Crepúsculo civil 5:32 AM PYST 7:21 PM PYST
Crepúsculo náutico 5:04 AM PYST 7:50 PM PYST
Crepúsculo astronómico 4:35 AM PYST 8:20 PM PYST
Luna 7:56 AM PYST 9:40 PM PYST
Horas de luz 13h 48m
Horas de luz
13h 00m
Tomorrow will be 1m 30s longer.
Creciente, 6% of the Moon is Illuminated
Hoy
Creciente
Oct 30
Cuarto creciente
Nov 6
Luna llena
Nov 14
Cuarto menguante
Nov 22
Nueva

Extremos de ayer

Máximos del país Bajas del país

Community

WunderPhotos

Upload Photos

1,765,127 ¡fotos cargadas!

Nearby

Calidad del aire

Not available.

Grosos de nieve

Not available.

Actividad de terremotos

Ciudad Distance Mag. Tiempo y dato
No hay informes recientes de la actividad sísmica.
Magnitud mínima muestra es 2,5.

Temperaturas de aguas costeras

Lugar Temperatura
Sin partes meteorológicos de las estaciones

Estaciones meteorológicas cercanas